Time;durP1;ratioP1;P1;durP2;ratioP2;P2;SDS_P1;SDS_P2;PMS_P1;PMS_P2;Temp;Humidity;BMP_temperature;BMP_pressure;BME280_temperature;BME280_humidity;BME280_pressure;Samples;Min_cycle;Max_cycle;Signal;HPM_P1;HPM_P2
2021/03/01 00:00:15;;;;;;;23.00;11.00;;;;;;;;;;5053783;28;20049;-79
2021/03/01 00:02:41;;;;;;;20.50;11.27;;;;;;;;;;5053648;28;20041;-79
2021/03/01 00:05:07;;;;;;;20.73;10.73;;;;;;;;;;5068658;28;20017;-80
2021/03/01 00:07:32;;;;;;;21.27;11.20;;;;;;;;;;5068552;28;20021;-80
2021/03/01 00:09:57;;;;;;;22.00;11.83;;;;;;;;;;5051650;28;20025;-80
2021/03/01 00:12:23;;;;;;;23.93;11.50;;;;;;;;;;5068966;28;20039;-80
2021/03/01 00:14:48;;;;;;;28.57;11.87;;;;;;;;;;5068923;28;20033;-80
2021/03/01 00:17:13;;;;;;;21.10;11.30;;;;;;;;;;5066147;28;20028;-80
2021/03/01 00:19:38;;;;;;;20.80;11.10;;;;;;;;;;5068968;28;20468;-80
2021/03/01 00:22:03;;;;;;;23.43;11.77;;;;;;;;;;5052050;28;20023;-80
2021/03/01 00:24:29;;;;;;;24.97;11.37;;;;;;;;;;5052045;28;20078;-80
2021/03/01 00:26:54;;;;;;;21.60;11.30;;;;;;;;;;5053112;28;20044;-80
2021/03/01 00:29:19;;;;;;;23.33;11.47;;;;;;;;;;5051343;28;20020;-79
2021/03/01 00:31:44;;;;;;;25.97;12.10;;;;;;;;;;5051928;28;20044;-79
2021/03/01 00:34:09;;;;;;;22.37;11.57;;;;;;;;;;5051838;28;20025;-80
2021/03/01 00:36:34;;;;;;;22.13;12.40;;;;;;;;;;5051799;28;20032;-80
2021/03/01 00:39:00;;;;;;;23.30;12.20;;;;;;;;;;5051991;28;20555;-80
2021/03/01 00:41:25;;;;;;;26.97;12.87;;;;;;;;;;5053412;28;20082;-79
2021/03/01 00:43:50;;;;;;;25.40;11.97;;;;;;;;;;5068508;28;20029;-79
2021/03/01 00:46:16;;;;;;;26.07;12.80;;;;;;;;;;5052843;28;20372;-80
2021/03/01 00:48:41;;;;;;;26.30;12.67;;;;;;;;;;5051809;28;20025;-80
2021/03/01 00:51:06;;;;;;;27.60;12.60;;;;;;;;;;5051602;28;20013;-80
2021/03/01 00:53:31;;;;;;;28.57;12.40;;;;;;;;;;5052844;28;20408;-79
2021/03/01 00:55:56;;;;;;;25.90;12.37;;;;;;;;;;5052928;28;20464;-79
2021/03/01 00:58:22;;;;;;;26.10;12.57;;;;;;;;;;5052359;28;20088;-79
2021/03/01 01:00:48;;;;;;;23.23;12.67;;;;;;;;;;5068368;28;20401;-79
2021/03/01 01:03:14;;;;;;;23.90;13.63;;;;;;;;;;5052667;28;20066;-79
2021/03/01 01:05:39;;;;;;;22.90;13.13;;;;;;;;;;5068275;28;20021;-80
2021/03/01 01:08:05;;;;;;;25.37;13.27;;;;;;;;;;5059004;28;20116;-80
2021/03/01 01:10:30;;;;;;;28.43;13.73;;;;;;;;;;5059835;28;20021;-79
2021/03/01 01:12:55;;;;;;;29.37;13.63;;;;;;;;;;5052790;28;20029;-79
2021/03/01 01:15:21;;;;;;;30.00;14.27;;;;;;;;;;5067887;28;20013;-79
2021/03/01 01:17:46;;;;;;;24.50;13.20;;;;;;;;;;5068117;28;20461;-80
2021/03/01 01:20:12;;;;;;;26.70;14.23;;;;;;;;;;5052493;28;20036;-79
2021/03/01 01:22:38;;;;;;;27.13;12.97;;;;;;;;;;5052452;28;20108;-79
2021/03/01 01:25:04;;;;;;;31.30;14.03;;;;;;;;;;5051115;28;20132;-80
2021/03/01 01:27:29;;;;;;;29.97;15.23;;;;;;;;;;5052352;28;20013;-80
2021/03/01 01:29:54;;;;;;;29.90;14.50;;;;;;;;;;5051262;28;20023;-80
2021/03/01 01:32:20;;;;;;;24.53;13.73;;;;;;;;;;5067938;28;20100;-80
2021/03/01 01:34:45;;;;;;;31.93;15.07;;;;;;;;;;5052616;28;20040;-80
2021/03/01 01:37:10;;;;;;;27.57;14.40;;;;;;;;;;5068017;28;20086;-80
2021/03/01 01:39:35;;;;;;;29.33;14.67;;;;;;;;;;5051012;28;20024;-79
2021/03/01 01:42:00;;;;;;;32.87;15.00;;;;;;;;;;5051321;28;20048;-80
2021/03/01 01:44:26;;;;;;;26.53;15.00;;;;;;;;;;5065903;28;20021;-80
2021/03/01 01:46:51;;;;;;;23.70;13.23;;;;;;;;;;5052486;28;20017;-80
2021/03/01 01:49:16;;;;;;;28.80;15.07;;;;;;;;;;5050834;28;20028;-80
2021/03/01 01:51:42;;;;;;;26.03;13.03;;;;;;;;;;5051034;28;20039;-80
2021/03/01 01:54:08;;;;;;;30.60;15.13;;;;;;;;;;5050592;28;20098;-80
2021/03/01 01:56:33;;;;;;;30.70;14.70;;;;;;;;;;5050885;28;20027;-80
2021/03/01 01:58:58;;;;;;;29.23;14.90;;;;;;;;;;5050614;28;20383;-80
2021/03/01 02:01:24;;;;;;;32.73;15.40;;;;;;;;;;5050833;28;20357;-79
2021/03/01 02:03:52;;;;;;;30.70;15.13;;;;;;;;;;5050478;28;20035;-80
2021/03/01 02:06:29;;;;;;;32.83;15.80;;;;;;;;;;5052168;28;20096;-80
2021/03/01 02:08:57;;;;;;;31.73;16.07;;;;;;;;;;5050958;28;20017;-80
2021/03/01 02:11:43;;;;;;;31.23;15.97;;;;;;;;;;5054486;28;20139;-80
2021/03/01 02:14:17;;;;;;;31.83;16.30;;;;;;;;;;5053966;28;20266;-80
2021/03/01 02:16:42;;;;;;;31.23;15.37;;;;;;;;;;5054023;28;20046;-80
2021/03/01 02:19:08;;;;;;;29.40;15.47;;;;;;;;;;5054354;28;20723;-80
2021/03/01 02:21:37;;;;;;;31.60;15.87;;;;;;;;;;5054553;28;20028;-80
2021/03/01 02:24:03;;;;;;;32.10;16.67;;;;;;;;;;5054180;28;20025;-80
2021/03/01 02:26:31;;;;;;;34.97;16.33;;;;;;;;;;5055704;28;20147;-80
2021/03/01 02:29:03;;;;;;;31.30;15.83;;;;;;;;;;5054348;28;20017;-80
2021/03/01 02:31:28;;;;;;;32.88;16.90;;;;;;;;;;5040929;28;20017;-80
2021/03/01 02:33:55;;;;;;;26.10;15.33;;;;;;;;;;5053567;28;20040;-80
2021/03/01 02:36:29;;;;;;;28.90;15.33;;;;;;;;;;5054126;28;20096;-80
2021/03/01 02:38:56;;;;;;;29.13;15.23;;;;;;;;;;5054084;28;20052;-80
2021/03/01 02:41:22;;;;;;;33.30;15.73;;;;;;;;;;5055280;28;20330;-80
2021/03/01 02:43:48;;;;;;;28.73;16.03;;;;;;;;;;5055399;28;20020;-80
2021/03/01 02:46:14;;;;;;;31.83;16.40;;;;;;;;;;5053830;28;20449;-80
2021/03/01 02:48:40;;;;;;;27.57;13.40;;;;;;;;;;5055255;28;20096;-80
2021/03/01 02:51:06;;;;;;;31.65;16.25;;;;;;;;;;5053879;28;20017;-80
2021/03/01 02:53:31;;;;;;;32.13;16.25;;;;;;;;;;5053733;28;20483;-80
2021/03/01 02:55:58;;;;;;;29.98;14.52;;;;;;;;;;5055280;28;20096;-80
2021/03/01 02:58:23;;;;;;;31.33;16.42;;;;;;;;;;5053748;28;20468;-79
2021/03/01 03:00:49;;;;;;;33.30;16.40;;;;;;;;;;5055042;28;20036;-80
2021/03/01 03:03:14;;;;;;;30.70;14.33;;;;;;;;;;5054790;28;20687;-80
2021/03/01 03:05:41;;;;;;;31.47;15.70;;;;;;;;;;5053807;28;20480;-80
2021/03/01 03:08:07;;;;;;;27.40;13.17;;;;;;;;;;5055068;28;20017;-80
2021/03/01 03:10:32;;;;;;;32.78;18.00;;;;;;;;;;5053529;28;20071;-80
2021/03/01 03:12:58;;;;;;;34.07;17.40;;;;;;;;;;5053522;28;20064;-80
2021/03/01 03:15:25;;;;;;;34.27;17.90;;;;;;;;;;5053435;28;20013;-80
2021/03/01 03:17:50;;;;;;;37.03;18.27;;;;;;;;;;5054921;28;20372;-80
2021/03/01 03:20:16;;;;;;;34.63;17.60;;;;;;;;;;5054175;28;20028;-79
2021/03/01 03:22:41;;;;;;;41.93;18.33;;;;;;;;;;5053141;28;20009;-79
2021/03/01 03:25:08;;;;;;;37.60;17.23;;;;;;;;;;5053297;28;20024;-79
2021/03/01 03:27:33;;;;;;;34.30;17.27;;;;;;;;;;5052779;28;20170;-80
2021/03/01 03:29:58;;;;;;;27.50;13.87;;;;;;;;;;5053303;28;20052;-80
2021/03/01 03:32:23;;;;;;;29.43;15.97;;;;;;;;;;5053212;28;20017;-80
2021/03/01 03:34:49;;;;;;;30.15;16.10;;;;;;;;;;5053218;28;20436;-80
2021/03/01 03:37:23;;;;;;;30.30;15.67;;;;;;;;;;5053014;28;20021;-80
2021/03/01 03:39:48;;;;;;;38.13;19.27;;;;;;;;;;5054510;28;20013;-80
2021/03/01 03:42:16;;;;;;;40.35;18.13;;;;;;;;;;5053067;28;20047;-80
2021/03/01 03:44:42;;;;;;;44.88;20.73;;;;;;;;;;5052773;28;20028;-80
2021/03/01 03:47:07;;;;;;;42.72;20.98;;;;;;;;;;5054327;28;20476;-80
2021/03/01 03:49:34;;;;;;;49.15;20.48;;;;;;;;;;5052766;28;20013;-80
2021/03/01 03:52:01;;;;;;;55.38;23.92;;;;;;;;;;5052881;28;20132;-80
2021/03/01 03:54:29;;;;;;;61.50;28.30;;;;;;;;;;5052639;28;20021;-80
2021/03/01 03:56:55;;;;;;;63.53;26.15;;;;;;;;;;5052875;28;20388;-80
2021/03/01 03:59:21;;;;;;;62.10;28.10;;;;;;;;;;5052509;28;20025;-79
2021/03/01 04:01:49;;;;;;;46.85;19.77;;;;;;;;;;5052620;28;20013;-80
2021/03/01 04:04:16;;;;;;;55.95;24.30;;;;;;;;;;5052597;28;20070;-80
2021/03/01 04:06:43;;;;;;;51.78;22.85;;;;;;;;;;5052374;28;20028;-80
2021/03/01 04:09:09;;;;;;;52.22;23.60;;;;;;;;;;5052681;28;20028;-80
2021/03/01 04:11:35;;;;;;;56.85;27.35;;;;;;;;;;5052222;28;20112;-80
2021/03/01 04:14:00;;;;;;;63.58;27.25;;;;;;;;;;5052158;28;20056;-81
2021/03/01 04:16:26;;;;;;;62.60;26.25;;;;;;;;;;5052428;28;20021;-80
2021/03/01 04:18:53;;;;;;;66.53;29.67;;;;;;;;;;5053502;28;20060;-80
2021/03/01 04:21:20;;;;;;;55.22;23.80;;;;;;;;;;5052143;28;20095;-80
2021/03/01 04:23:45;;;;;;;64.45;28.80;;;;;;;;;;5052009;28;20020;-80
2021/03/01 04:26:11;;;;;;;55.63;22.15;;;;;;;;;;5052272;28;20024;-80
2021/03/01 04:28:36;;;;;;;70.75;29.05;;;;;;;;;;5052322;28;20013;-80
2021/03/01 04:31:03;;;;;;;56.30;24.50;;;;;;;;;;5053363;28;20049;-80
2021/03/01 04:33:29;;;;;;;79.13;32.00;;;;;;;;;;5051064;28;20021;-80
2021/03/01 04:35:54;;;;;;;63.22;25.27;;;;;;;;;;5051602;28;20028;-80
2021/03/01 04:38:20;;;;;;;73.35;29.75;;;;;;;;;;5052065;28;20021;-80
2021/03/01 04:40:45;;;;;;;80.43;30.50;;;;;;;;;;5051774;28;20021;-80
2021/03/01 04:43:10;;;;;;;74.82;29.75;;;;;;;;;;5051801;28;20021;-80
2021/03/01 04:45:37;;;;;;;71.60;28.30;;;;;;;;;;5051889;28;20070;-80
2021/03/01 04:48:03;;;;;;;81.25;31.00;;;;;;;;;;5051491;28;20017;-80
2021/03/01 04:50:28;;;;;;;84.70;30.48;;;;;;;;;;5053091;28;20033;-80
2021/03/01 04:52:54;;;;;;;84.03;33.17;;;;;;;;;;5052903;28;20500;-80
2021/03/01 04:55:19;;;;;;;82.07;31.77;;;;;;;;;;5051620;28;20017;-80
2021/03/01 04:57:44;;;;;;;85.03;32.22;;;;;;;;;;5051716;28;20380;-80
2021/03/01 05:00:10;;;;;;;79.80;29.92;;;;;;;;;;5051534;28;20405;-80
2021/03/01 05:02:39;;;;;;;91.90;35.05;;;;;;;;;;5051630;28;20024;-80
2021/03/01 05:05:05;;;;;;;79.07;31.60;;;;;;;;;;5051392;28;20031;-80
2021/03/01 05:07:30;;;;;;;89.68;32.08;;;;;;;;;;5051474;28;20096;-80
2021/03/01 05:09:56;;;;;;;93.22;35.83;;;;;;;;;;5051526;28;20048;-80
2021/03/01 05:12:21;;;;;;;82.93;31.92;;;;;;;;;;5037454;28;20052;-80
2021/03/01 05:14:46;;;;;;;93.00;36.53;;;;;;;;;;5052918;28;20049;-80
2021/03/01 05:17:12;;;;;;;76.15;29.77;;;;;;;;;;5051036;28;20041;-80
2021/03/01 05:19:37;;;;;;;90.05;33.80;;;;;;;;;;5052457;28;20035;-80
2021/03/01 05:22:02;;;;;;;97.75;35.25;;;;;;;;;;5051148;28;20032;-80
2021/03/01 05:24:27;;;;;;;90.38;34.38;;;;;;;;;;5052443;28;20476;-80
2021/03/01 05:26:53;;;;;;;99.80;35.58;;;;;;;;;;5051273;28;20013;-80
2021/03/01 05:29:18;;;;;;;95.80;35.83;;;;;;;;;;5052410;28;20013;-80
2021/03/01 05:31:44;;;;;;;96.27;37.07;;;;;;;;;;5051215;28;20027;-80
2021/03/01 05:34:09;;;;;;;100.37;37.00;;;;;;;;;;5052151;28;20017;-80
2021/03/01 05:36:34;;;;;;;90.20;32.40;;;;;;;;;;5051190;28;20039;-80
2021/03/01 05:39:00;;;;;;;95.27;36.37;;;;;;;;;;5051025;28;20013;-80
2021/03/01 05:41:25;;;;;;;100.40;37.13;;;;;;;;;;5051145;28;20017;-80
2021/03/01 05:43:51;;;;;;;102.07;35.23;;;;;;;;;;5051897;28;20017;-80
2021/03/01 05:46:17;;;;;;;103.83;36.50;;;;;;;;;;5054989;28;20021;-80
2021/03/01 05:48:43;;;;;;;107.73;37.40;;;;;;;;;;5055178;28;20468;-80
2021/03/01 05:51:08;;;;;;;90.63;32.03;;;;;;;;;;5056295;28;20017;-80
2021/03/01 05:53:38;;;;;;;83.60;29.70;;;;;;;;;;5055125;28;20021;-80
2021/03/01 05:56:03;;;;;;;85.30;31.23;;;;;;;;;;5056316;28;20067;-80
2021/03/01 05:58:29;;;;;;;80.47;29.98;;;;;;;;;;5054875;28;20025;-80
2021/03/01 06:01:02;;;;;;;99.13;36.75;;;;;;;;;;5054893;28;20017;-80
2021/03/01 06:03:28;;;;;;;108.15;39.35;;;;;;;;;;5054820;28;20032;-80
2021/03/01 06:05:53;;;;;;;102.57;36.83;;;;;;;;;;5054962;28;20018;-80
2021/03/01 06:08:19;;;;;;;86.28;33.40;;;;;;;;;;5054565;28;20048;-80
2021/03/01 06:10:44;;;;;;;99.72;37.35;;;;;;;;;;5054762;28;20031;-80
2021/03/01 06:13:09;;;;;;;106.43;37.60;;;;;;;;;;5054923;28;20033;-80
2021/03/01 06:15:36;;;;;;;103.07;34.30;;;;;;;;;;5055949;28;20063;-80
2021/03/01 06:18:04;;;;;;;108.60;39.13;;;;;;;;;;5054659;28;20017;-80
2021/03/01 06:20:29;;;;;;;96.20;35.63;;;;;;;;;;5054644;28;20013;-80
2021/03/01 06:22:54;;;;;;;95.63;33.88;;;;;;;;;;5054525;28;20063;-80
2021/03/01 06:25:20;;;;;;;110.65;39.40;;;;;;;;;;5055736;28;20092;-80
2021/03/01 06:27:53;;;;;;;99.07;37.92;;;;;;;;;;5054513;28;20100;-80
2021/03/01 06:30:29;;;;;;;105.15;37.55;;;;;;;;;;5054217;28;20028;-80
2021/03/01 06:33:10;;;;;;;99.00;35.90;;;;;;;;;;5041696;28;20024;-80
2021/03/01 06:35:48;;;;;;;104.40;36.22;;;;;;;;;;5054266;28;20035;-80
2021/03/01 06:38:31;;;;;;;105.20;38.30;;;;;;;;;;5054295;28;20017;-80
2021/03/01 06:41:13;;;;;;;97.75;30.40;;;;;;;;;;5054212;28;20421;-79
2021/03/01 06:43:40;;;;;;;113.38;41.28;;;;;;;;;;5055470;28;20029;-80
2021/03/01 06:46:12;;;;;;;116.77;38.97;;;;;;;;;;5054045;28;20052;-80
2021/03/01 06:48:37;;;;;;;113.80;39.08;;;;;;;;;;5054042;28;20017;-80
2021/03/01 06:51:04;;;;;;;115.80;37.70;;;;;;;;;;5053915;28;20021;-80
2021/03/01 06:53:29;;;;;;;119.23;41.13;;;;;;;;;;5053970;28;20029;-80
2021/03/01 06:55:57;;;;;;;123.73;42.77;;;;;;;;;;5053607;28;20031;-79
2021/03/01 06:58:27;;;;;;;122.03;40.00;;;;;;;;;;5055208;28;20025;-79
2021/03/01 07:01:21;;;;;;;112.87;39.30;;;;;;;;;;5053944;28;20021;-80
2021/03/01 07:03:50;;;;;;;113.60;37.63;;;;;;;;;;5045164;28;20037;-80
2021/03/01 07:06:16;;;;;;;109.57;38.20;;;;;;;;;;5055158;28;20017;-79
2021/03/01 07:08:54;;;;;;;109.30;37.13;;;;;;;;;;5055006;28;20139;-80
2021/03/01 07:11:22;;;;;;;110.80;36.30;;;;;;;;;;5053644;28;20067;-80
2021/03/01 07:13:47;;;;;;;94.80;33.05;;;;;;;;;;5053581;28;20028;-80
2021/03/01 07:16:13;;;;;;;97.25;34.42;;;;;;;;;;5054499;28;20054;-79
2021/03/01 07:18:39;;;;;;;96.30;34.92;;;;;;;;;;5052989;28;20494;-80
2021/03/01 07:21:05;;;;;;;94.10;33.20;;;;;;;;;;5053599;28;20146;-80
2021/03/01 07:23:30;;;;;;;94.45;33.53;;;;;;;;;;5054292;28;20165;-80
2021/03/01 07:25:56;;;;;;;100.32;37.75;;;;;;;;;;5053245;28;20020;-80
2021/03/01 07:28:21;;;;;;;106.65;36.03;;;;;;;;;;5053403;28;20491;-80
2021/03/01 07:30:48;;;;;;;96.35;36.53;;;;;;;;;;5051572;28;20102;-80
2021/03/01 07:33:14;;;;;;;88.53;30.63;;;;;;;;;;5051774;28;20032;-80
2021/03/01 07:35:40;;;;;;;104.95;35.75;;;;;;;;;;5053068;28;20021;-80
2021/03/01 07:38:05;;;;;;;111.05;38.53;;;;;;;;;;5052268;28;20032;-80
2021/03/01 07:40:31;;;;;;;99.25;35.08;;;;;;;;;;5053194;28;20017;-80
2021/03/01 07:42:56;;;;;;;113.55;39.33;;;;;;;;;;5052126;28;20020;-80
2021/03/01 07:45:21;;;;;;;93.47;32.88;;;;;;;;;;5052867;28;20025;-80
2021/03/01 07:47:46;;;;;;;99.40;35.53;;;;;;;;;;5051913;28;20350;-80
2021/03/01 07:50:31;;;;;;;113.32;37.63;;;;;;;;;;5052847;28;20108;-79
2021/03/01 07:52:56;;;;;;;117.00;38.00;;;;;;;;;;5052070;28;20013;-80
2021/03/01 07:55:24;;;;;;;108.77;37.93;;;;;;;;;;5052525;28;20027;-80
2021/03/01 07:58:05;;;;;;;113.57;38.83;;;;;;;;;;5051959;28;20074;-80
2021/03/01 08:00:33;;;;;;;114.05;38.88;;;;;;;;;;5040638;28;20067;-79
2021/03/01 08:02:58;;;;;;;119.67;40.70;;;;;;;;;;5053372;28;20032;-79
2021/03/01 08:05:28;;;;;;;120.23;40.70;;;;;;;;;;5052600;28;20013;-80
2021/03/01 08:07:54;;;;;;;113.07;38.83;;;;;;;;;;5052291;28;20009;-80
2021/03/01 08:10:28;;;;;;;106.87;36.70;;;;;;;;;;5049302;28;20021;-80
2021/03/01 08:12:55;;;;;;;109.20;36.65;;;;;;;;;;5052357;28;20025;-80
2021/03/01 08:15:27;;;;;;;111.28;36.78;;;;;;;;;;5052260;28;20028;-80
2021/03/01 08:17:53;;;;;;;108.53;34.78;;;;;;;;;;5052392;28;20020;-80
2021/03/01 08:20:24;;;;;;;104.60;35.40;;;;;;;;;;5052243;28;20380;-80
2021/03/01 08:23:01;;;;;;;88.97;32.30;;;;;;;;;;5053718;28;20051;-80
2021/03/01 08:25:41;;;;;;;99.45;32.42;;;;;;;;;;5053152;28;20469;-80
2021/03/01 08:28:07;;;;;;;101.22;35.17;;;;;;;;;;5052251;28;20017;-80
2021/03/01 08:30:33;;;;;;;101.43;34.80;;;;;;;;;;5051633;28;20412;-80
2021/03/01 08:33:10;;;;;;;98.53;33.70;;;;;;;;;;5052230;28;20012;-80
2021/03/01 08:35:36;;;;;;;99.75;33.75;;;;;;;;;;5051928;28;20017;-80
2021/03/01 08:38:02;;;;;;;105.00;36.22;;;;;;;;;;5052053;28;20017;-81
2021/03/01 08:40:27;;;;;;;107.45;36.40;;;;;;;;;;5051999;28;20024;-81
2021/03/01 08:42:53;;;;;;;98.38;34.83;;;;;;;;;;5051795;28;20017;-81
2021/03/01 08:45:33;;;;;;;113.95;37.97;;;;;;;;;;5051715;28;20133;-81
2021/03/01 08:47:59;;;;;;;110.88;38.95;;;;;;;;;;5052779;28;20044;-80
2021/03/01 08:50:27;;;;;;;118.05;40.13;;;;;;;;;;5052976;28;20399;-81
2021/03/01 08:52:52;;;;;;;111.75;37.35;;;;;;;;;;5051462;28;20075;-80
2021/03/01 08:55:18;;;;;;;103.97;36.13;;;;;;;;;;5053057;28;20025;-80
2021/03/01 08:58:03;;;;;;;99.18;33.10;;;;;;;;;;5051394;28;20376;-80
2021/03/01 09:00:29;;;;;;;100.68;34.33;;;;;;;;;;5054376;28;20013;-80
2021/03/01 09:03:13;;;;;;;109.40;38.47;;;;;;;;;;5052902;28;20414;-80
2021/03/01 09:05:38;;;;;;;105.68;35.78;;;;;;;;;;5054741;28;20082;-80
2021/03/01 09:08:05;;;;;;;102.88;35.00;;;;;;;;;;5051652;28;20017;-80
2021/03/01 09:10:34;;;;;;;103.70;34.78;;;;;;;;;;5051374;28;20100;-80
2021/03/01 09:12:59;;;;;;;106.00;36.03;;;;;;;;;;5050879;28;20029;-80
2021/03/01 09:15:24;;;;;;;108.82;37.83;;;;;;;;;;5052322;28;20492;-80
2021/03/01 09:17:51;;;;;;;110.05;35.25;;;;;;;;;;5051330;28;20482;-80
2021/03/01 09:20:16;;;;;;;91.07;33.25;;;;;;;;;;5051907;28;20112;-80
2021/03/01 09:22:43;;;;;;;111.15;36.30;;;;;;;;;;5051191;28;20456;-80
2021/03/01 09:25:24;;;;;;;103.18;34.80;;;;;;;;;;5051289;28;20128;-80
2021/03/01 09:27:49;;;;;;;108.07;36.33;;;;;;;;;;5038778;28;20456;-80
2021/03/01 09:30:18;;;;;;;104.20;38.15;;;;;;;;;;5052577;28;20078;-80
2021/03/01 09:32:53;;;;;;;103.20;34.13;;;;;;;;;;5050577;28;20017;-80
2021/03/01 09:35:19;;;;;;;113.57;37.53;;;;;;;;;;5052702;28;20032;-80
2021/03/01 09:37:44;;;;;;;103.80;35.40;;;;;;;;;;5050922;28;20052;-80
2021/03/01 09:40:10;;;;;;;103.28;36.92;;;;;;;;;;5051193;28;20013;-80
2021/03/01 09:42:35;;;;;;;108.90;35.90;;;;;;;;;;5050840;28;20405;-80
2021/03/01 09:45:00;;;;;;;105.60;34.08;;;;;;;;;;5052244;28;20017;-80
2021/03/01 09:47:25;;;;;;;100.28;34.83;;;;;;;;;;5050010;28;20021;-80
2021/03/01 09:49:51;;;;;;;112.60;37.83;;;;;;;;;;5051250;28;20112;-81
2021/03/01 09:52:16;;;;;;;114.47;38.03;;;;;;;;;;5052108;28;20021;-80
2021/03/01 09:54:41;;;;;;;112.32;39.08;;;;;;;;;;5050441;28;20017;-80
2021/03/01 09:57:08;;;;;;;112.20;35.00;;;;;;;;;;5050729;28;20480;-79
2021/03/01 09:59:35;;;;;;;102.15;34.00;;;;;;;;;;5050479;28;20025;-80
2021/03/01 10:02:16;;;;;;;98.57;33.28;;;;;;;;;;5050819;28;20024;-80
2021/03/01 10:04:42;;;;;;;103.15;34.10;;;;;;;;;;5043867;28;20495;-80
2021/03/01 10:07:26;;;;;;;101.25;34.97;;;;;;;;;;5052160;28;20009;-80
2021/03/01 10:09:52;;;;;;;97.00;33.25;;;;;;;;;;5050891;28;20053;-80
2021/03/01 10:12:17;;;;;;;111.30;36.53;;;;;;;;;;5050342;28;20044;-80
2021/03/01 10:14:43;;;;;;;103.20;34.60;;;;;;;;;;5050719;28;20072;-80
2021/03/01 10:17:18;;;;;;;97.95;34.25;;;;;;;;;;5050864;28;20033;-80
2021/03/01 10:19:43;;;;;;;86.40;29.73;;;;;;;;;;5050576;28;20539;-80
2021/03/01 10:22:08;;;;;;;96.65;31.58;;;;;;;;;;5050797;28;20032;-80
2021/03/01 10:24:47;;;;;;;90.97;27.52;;;;;;;;;;5050376;28;20063;-80
2021/03/01 10:27:13;;;;;;;98.47;33.35;;;;;;;;;;5051918;28;20017;-80
2021/03/01 10:29:39;;;;;;;108.82;35.85;;;;;;;;;;5050615;28;20021;-80
2021/03/01 10:32:15;;;;;;;97.63;33.58;;;;;;;;;;5054233;28;20024;-80
2021/03/01 10:34:41;;;;;;;105.45;32.47;;;;;;;;;;5053483;28;20096;-81
2021/03/01 10:37:09;;;;;;;108.75;36.05;;;;;;;;;;5054314;28;20121;-81
2021/03/01 10:39:35;;;;;;;109.88;36.95;;;;;;;;;;5040478;28;20096;-80
2021/03/01 10:42:02;;;;;;;103.10;33.03;;;;;;;;;;5054169;28;20051;-80
2021/03/01 10:44:32;;;;;;;91.25;32.75;;;;;;;;;;5053853;28;20509;-80
2021/03/01 10:47:01;;;;;;;102.10;36.35;;;;;;;;;;5054255;28;20009;-80
2021/03/01 10:49:26;;;;;;;97.43;32.75;;;;;;;;;;5052877;28;20040;-81
2021/03/01 10:51:53;;;;;;;113.25;38.53;;;;;;;;;;5044159;28;20041;-81
2021/03/01 10:54:18;;;;;;;117.55;40.88;;;;;;;;;;5054091;28;20033;-80
2021/03/01 10:56:44;;;;;;;109.68;37.25;;;;;;;;;;5052270;28;20029;-81
2021/03/01 10:59:09;;;;;;;95.70;30.77;;;;;;;;;;5053762;28;20464;-81
2021/03/01 11:01:38;;;;;;;109.15;34.15;;;;;;;;;;5054993;28;20357;-81
2021/03/01 11:04:04;;;;;;;106.70;34.13;;;;;;;;;;5053510;28;20036;-81
2021/03/01 11:06:29;;;;;;;104.53;35.65;;;;;;;;;;5052600;28;20017;-81
2021/03/01 11:08:55;;;;;;;92.93;31.10;;;;;;;;;;5053527;28;20021;-81
2021/03/01 11:11:20;;;;;;;93.85;31.77;;;;;;;;;;5053711;28;20033;-81
2021/03/01 11:13:45;;;;;;;95.05;35.10;;;;;;;;;;5054948;28;20025;-81
2021/03/01 11:16:11;;;;;;;91.75;31.10;;;;;;;;;;5055010;28;20032;-81
2021/03/01 11:18:36;;;;;;;80.50;28.30;;;;;;;;;;5053159;28;20033;-81
2021/03/01 11:21:01;;;;;;;97.53;32.42;;;;;;;;;;5053587;28;20072;-81
2021/03/01 11:23:26;;;;;;;95.50;31.42;;;;;;;;;;5053474;28;20032;-81
2021/03/01 11:25:51;;;;;;;80.22;26.50;;;;;;;;;;5054385;28;20025;-81
2021/03/01 11:28:17;;;;;;;88.47;31.30;;;;;;;;;;5054505;28;20066;-80
2021/03/01 11:30:42;;;;;;;92.63;34.85;;;;;;;;;;5054638;28;20021;-80
2021/03/01 11:33:07;;;;;;;91.05;29.98;;;;;;;;;;5054685;28;20060;-80
2021/03/01 11:35:33;;;;;;;87.93;30.52;;;;;;;;;;5054326;28;20044;-80
2021/03/01 11:37:58;;;;;;;83.05;27.20;;;;;;;;;;5052962;28;20025;-81
2021/03/01 11:40:24;;;;;;;89.05;32.60;;;;;;;;;;5053027;28;20025;-81
2021/03/01 11:42:49;;;;;;;92.18;33.92;;;;;;;;;;5052490;28;20107;-80
2021/03/01 11:45:14;;;;;;;97.90;32.45;;;;;;;;;;5053091;28;20029;-80
2021/03/01 11:47:39;;;;;;;102.00;35.70;;;;;;;;;;5052615;28;20100;-80
2021/03/01 11:50:05;;;;;;;102.95;34.70;;;;;;;;;;5052594;28;20028;-80
2021/03/01 11:52:30;;;;;;;98.45;35.83;;;;;;;;;;5052612;28;20545;-80
2021/03/01 11:54:55;;;;;;;93.07;31.55;;;;;;;;;;5053002;28;20148;-80
2021/03/01 11:57:20;;;;;;;97.32;33.60;;;;;;;;;;5052720;28;20025;-80
2021/03/01 11:59:49;;;;;;;85.72;31.10;;;;;;;;;;5053354;28;20017;-81
2021/03/01 12:02:14;;;;;;;105.55;38.08;;;;;;;;;;5053909;28;20021;-81
2021/03/01 12:04:39;;;;;;;111.70;36.38;;;;;;;;;;5053693;28;20426;-80
2021/03/01 12:07:04;;;;;;;89.22;32.20;;;;;;;;;;5052413;28;20547;-81
2021/03/01 12:09:30;;;;;;;96.38;32.92;;;;;;;;;;5053735;28;20159;-80
2021/03/01 12:11:55;;;;;;;90.55;33.25;;;;;;;;;;5053305;28;20033;-80
2021/03/01 12:14:20;;;;;;;101.38;33.50;;;;;;;;;;5052542;28;20368;-80
2021/03/01 12:16:45;;;;;;;92.57;32.75;;;;;;;;;;5052139;28;20021;-81
2021/03/01 12:19:11;;;;;;;98.90;33.97;;;;;;;;;;5051963;28;20032;-80
2021/03/01 12:21:36;;;;;;;93.78;35.03;;;;;;;;;;5052274;28;20025;-81
2021/03/01 12:24:01;;;;;;;89.13;33.20;;;;;;;;;;5052097;28;20055;-80
2021/03/01 12:26:26;;;;;;;79.55;27.33;;;;;;;;;;5052294;28;20017;-80
2021/03/01 12:28:51;;;;;;;79.78;27.95;;;;;;;;;;5051955;28;20021;-80
2021/03/01 12:31:17;;;;;;;77.22;27.80;;;;;;;;;;5052119;28;20020;-80
2021/03/01 12:33:42;;;;;;;76.18;27.50;;;;;;;;;;5052336;28;20025;-81
2021/03/01 12:36:07;;;;;;;75.97;30.88;;;;;;;;;;5051764;28;20025;-80
2021/03/01 12:38:32;;;;;;;78.53;29.58;;;;;;;;;;5051868;28;20020;-80
2021/03/01 12:40:57;;;;;;;89.63;29.63;;;;;;;;;;5051697;28;20017;-80
2021/03/01 12:43:23;;;;;;;86.10;29.30;;;;;;;;;;5052073;28;20077;-80
2021/03/01 12:45:48;;;;;;;77.90;29.30;;;;;;;;;;5051278;28;21617;-81
2021/03/01 12:48:13;;;;;;;74.93;26.48;;;;;;;;;;5051761;28;20021;-81
2021/03/01 12:50:38;;;;;;;71.10;29.10;;;;;;;;;;5052042;28;20326;-81
2021/03/01 12:53:03;;;;;;;80.60;32.03;;;;;;;;;;5051262;28;20116;-81
2021/03/01 12:55:29;;;;;;;86.72;34.13;;;;;;;;;;5051177;28;20151;-81
2021/03/01 12:57:54;;;;;;;98.78;36.55;;;;;;;;;;5051536;28;20028;-81
2021/03/01 13:00:19;;;;;;;94.82;37.67;;;;;;;;;;5050751;28;20067;-81
2021/03/01 13:02:44;;;;;;;87.63;30.27;;;;;;;;;;5050934;28;20866;-81
2021/03/01 13:05:10;;;;;;;94.97;36.20;;;;;;;;;;5051337;28;20112;-81
2021/03/01 13:07:36;;;;;;;100.97;36.78;;;;;;;;;;5052856;28;20100;-80
2021/03/01 13:10:02;;;;;;;89.00;32.85;;;;;;;;;;5052517;28;20043;-81
2021/03/01 13:12:27;;;;;;;83.18;30.08;;;;;;;;;;5051410;28;20135;-81
2021/03/01 13:14:53;;;;;;;89.28;33.92;;;;;;;;;;5052653;28;20016;-81
2021/03/01 13:17:18;;;;;;;88.35;35.17;;;;;;;;;;5047818;28;20399;-81
2021/03/01 13:19:43;;;;;;;73.57;28.05;;;;;;;;;;5050959;28;20080;-81
2021/03/01 13:22:08;;;;;;;88.10;30.95;;;;;;;;;;5049420;28;20024;-81
2021/03/01 13:24:33;;;;;;;79.78;28.75;;;;;;;;;;5051317;28;20021;-81
2021/03/01 13:26:58;;;;;;;97.22;38.53;;;;;;;;;;5049201;28;20028;-81
2021/03/01 13:29:24;;;;;;;98.13;35.03;;;;;;;;;;5052728;28;20024;-80
2021/03/01 13:31:49;;;;;;;85.78;36.05;;;;;;;;;;5051920;28;20048;-81
2021/03/01 13:34:14;;;;;;;80.13;28.83;;;;;;;;;;5052458;28;20354;-81
2021/03/01 13:36:39;;;;;;;76.30;29.67;;;;;;;;;;5049849;28;20436;-81
2021/03/01 13:39:04;;;;;;;92.82;35.08;;;;;;;;;;5051040;28;20021;-80
2021/03/01 13:41:30;;;;;;;76.78;29.98;;;;;;;;;;5052398;28;20048;-80
2021/03/01 13:43:55;;;;;;;99.82;36.40;;;;;;;;;;5051751;28;20108;-80
2021/03/01 13:46:20;;;;;;;93.65;36.60;;;;;;;;;;5048569;28;20020;-80
2021/03/01 13:48:45;;;;;;;71.97;26.58;;;;;;;;;;5051870;28;20495;-80
2021/03/01 13:51:11;;;;;;;75.10;30.35;;;;;;;;;;5049781;28;20103;-80
2021/03/01 13:53:36;;;;;;;86.03;35.47;;;;;;;;;;5040741;28;20017;-80
2021/03/01 13:56:01;;;;;;;88.97;34.45;;;;;;;;;;5043968;28;20469;-80
2021/03/01 13:58:26;;;;;;;84.53;33.97;;;;;;;;;;5051640;28;20066;-80
2021/03/01 14:00:52;;;;;;;92.05;35.90;;;;;;;;;;5052315;28;20466;-80
2021/03/01 14:03:17;;;;;;;89.60;37.00;;;;;;;;;;5051225;28;20131;-80
2021/03/01 14:05:42;;;;;;;74.25;30.58;;;;;;;;;;5054182;28;20530;-80
2021/03/01 14:08:07;;;;;;;79.75;30.73;;;;;;;;;;5052041;28;20112;-81
2021/03/01 14:10:33;;;;;;;95.05;38.00;;;;;;;;;;5054724;28;20013;-80